< < Back
Terminal Aerodrome Forecast


Current Version              Previous Versions:   1  2  3  4  5  6  7  8  9  

Terminal Aerodrome Forecast

741
FTUS44 KBMX 071720
TAFMGM
TAF
KMGM 071720Z 0718/0818 31012KT P6SM SCT250
     FM080000 24003KT P6SM SCT150
     FM081200 26008KT P6SM BKN050=

Latest METAR

364
SAUS80 KWBC 071700 RRB
MTRMGM
METAR KMGM 071653Z 33010G15KT 10SM CLR 13/M05 A3023 RMK AO2 SLP239
T01331050


USA.gov is the U.S. government's official web portal to all federal, state and local government web resources and services.